sensor_id;sensor_type;location;lat;lon;timestamp;temperature;humidity
9425;DHT22;17139;52.140;11.636;2023-04-24T00:01:39;12.50;52.00
9425;DHT22;17139;52.140;11.636;2023-04-24T00:04:06;12.70;52.90
9425;DHT22;17139;52.140;11.636;2023-04-24T00:06:36;12.60;52.10
9425;DHT22;17139;52.140;11.636;2023-04-24T00:09:04;12.40;52.10
9425;DHT22;17139;52.140;11.636;2023-04-24T00:11:31;12.40;52.30
9425;DHT22;17139;52.140;11.636;2023-04-24T00:13:58;12.30;52.30
9425;DHT22;17139;52.140;11.636;2023-04-24T00:16:27;12.30;52.30
9425;DHT22;17139;52.140;11.636;2023-04-24T00:18:54;12.30;52.40
9425;DHT22;17139;52.140;11.636;2023-04-24T00:21:21;12.30;52.30
9425;DHT22;17139;52.140;11.636;2023-04-24T00:23:51;12.30;52.30
9425;DHT22;17139;52.140;11.636;2023-04-24T00:26:18;12.30;52.30
9425;DHT22;17139;52.140;11.636;2023-04-24T00:28:45;12.80;52.90
9425;DHT22;17139;52.140;11.636;2023-04-24T00:31:12;13.40;52.50
9425;DHT22;17139;52.140;11.636;2023-04-24T00:33:41;13.10;51.70
9425;DHT22;17139;52.140;11.636;2023-04-24T00:36:08;12.80;51.90
9425;DHT22;17139;52.140;11.636;2023-04-24T00:38:35;12.70;52.10
9425;DHT22;17139;52.140;11.636;2023-04-24T00:41:02;12.60;52.30
9425;DHT22;17139;52.140;11.636;2023-04-24T00:43:29;12.60;52.40
9425;DHT22;17139;52.140;11.636;2023-04-24T00:45:57;12.50;52.50
9425;DHT22;17139;52.140;11.636;2023-04-24T00:48:25;12.50;52.50
9425;DHT22;17139;52.140;11.636;2023-04-24T00:50:54;12.40;53.10
9425;DHT22;17139;52.140;11.636;2023-04-24T00:53:21;12.80;53.50
9425;DHT22;17139;52.140;11.636;2023-04-24T00:55:48;13.10;53.20
9425;DHT22;17139;52.140;11.636;2023-04-24T00:58:15;12.90;52.30
9425;DHT22;17139;52.140;11.636;2023-04-24T01:00:42;12.80;52.40
9425;DHT22;17139;52.140;11.636;2023-04-24T01:03:10;12.60;52.50
9425;DHT22;17139;52.140;11.636;2023-04-24T01:05:38;12.60;52.70
9425;DHT22;17139;52.140;11.636;2023-04-24T01:08:07;12.50;52.60
9425;DHT22;17139;52.140;11.636;2023-04-24T01:10:34;12.50;52.60
9425;DHT22;17139;52.140;11.636;2023-04-24T01:13:03;12.50;52.70
9425;DHT22;17139;52.140;11.636;2023-04-24T01:15:30;12.50;52.70
9425;DHT22;17139;52.140;11.636;2023-04-24T01:17:57;12.50;52.60
9425;DHT22;17139;52.140;11.636;2023-04-24T01:20:25;12.40;52.60
9425;DHT22;17139;52.140;11.636;2023-04-24T01:22:54;13.00;53.50
9425;DHT22;17139;52.140;11.636;2023-04-24T01:25:22;12.80;52.40
9425;DHT22;17139;52.140;11.636;2023-04-24T01:27:49;12.60;52.40
9425;DHT22;17139;52.140;11.636;2023-04-24T01:30:17;12.60;52.60
9425;DHT22;17139;52.140;11.636;2023-04-24T01:32:44;12.50;52.70
9425;DHT22;17139;52.140;11.636;2023-04-24T01:35:12;12.50;52.80
9425;DHT22;17139;52.140;11.636;2023-04-24T01:37:39;12.40;52.70
9425;DHT22;17139;52.140;11.636;2023-04-24T01:40:08;12.40;52.80
9425;DHT22;17139;52.140;11.636;2023-04-24T01:42:35;12.40;52.90
9425;DHT22;17139;52.140;11.636;2023-04-24T01:45:04;12.30;52.80
9425;DHT22;17139;52.140;11.636;2023-04-24T01:47:32;12.70;53.60
9425;DHT22;17139;52.140;11.636;2023-04-24T01:49:59;13.20;53.10
9425;DHT22;17139;52.140;11.636;2023-04-24T01:52:26;12.90;52.30
9425;DHT22;17139;52.140;11.636;2023-04-24T01:54:56;12.60;52.60
9425;DHT22;17139;52.140;11.636;2023-04-24T01:57:27;12.40;52.80
9425;DHT22;17139;52.140;11.636;2023-04-24T01:59:56;12.20;52.90
9425;DHT22;17139;52.140;11.636;2023-04-24T02:02:23;12.10;52.90
9425;DHT22;17139;52.140;11.636;2023-04-24T02:04:53;12.00;53.10
9425;DHT22;17139;52.140;11.636;2023-04-24T02:07:20;12.00;53.30
9425;DHT22;17139;52.140;11.636;2023-04-24T02:09:47;11.90;53.20
9425;DHT22;17139;52.140;11.636;2023-04-24T02:12:14;12.60;53.80
9425;DHT22;17139;52.140;11.636;2023-04-24T02:14:44;12.30;52.80
9425;DHT22;17139;52.140;11.636;2023-04-24T02:17:11;12.10;53.10
9425;DHT22;17139;52.140;11.636;2023-04-24T02:19:41;11.90;53.20
9425;DHT22;17139;52.140;11.636;2023-04-24T02:22:08;11.80;53.20
9425;DHT22;17139;52.140;11.636;2023-04-24T02:24:36;11.70;53.40
9425;DHT22;17139;52.140;11.636;2023-04-24T02:27:03;11.60;53.60
9425;DHT22;17139;52.140;11.636;2023-04-24T02:29:30;11.50;53.60
9425;DHT22;17139;52.140;11.636;2023-04-24T02:31:59;11.40;53.60
9425;DHT22;17139;52.140;11.636;2023-04-24T02:34:25;11.30;53.60
9425;DHT22;17139;52.140;11.636;2023-04-24T02:36:52;11.30;53.70
9425;DHT22;17139;52.140;11.636;2023-04-24T02:39:20;11.20;53.70
9425;DHT22;17139;52.140;11.636;2023-04-24T02:41:47;11.40;54.50
9425;DHT22;17139;52.140;11.636;2023-04-24T02:44:14;11.30;53.60
9425;DHT22;17139;52.140;11.636;2023-04-24T02:46:43;11.20;53.70
9425;DHT22;17139;52.140;11.636;2023-04-24T02:49:11;11.20;53.80
9425;DHT22;17139;52.140;11.636;2023-04-24T02:51:38;11.10;53.80
9425;DHT22;17139;52.140;11.636;2023-04-24T02:54:07;11.10;53.80
9425;DHT22;17139;52.140;11.636;2023-04-24T02:56:35;11.10;53.80
9425;DHT22;17139;52.140;11.636;2023-04-24T02:59:02;11.00;53.70
9425;DHT22;17139;52.140;11.636;2023-04-24T03:01:29;11.00;53.80
9425;DHT22;17139;52.140;11.636;2023-04-24T03:03:56;10.90;53.80
9425;DHT22;17139;52.140;11.636;2023-04-24T03:06:25;10.90;53.80
9425;DHT22;17139;52.140;11.636;2023-04-24T03:08:52;10.90;53.90
9425;DHT22;17139;52.140;11.636;2023-04-24T03:11:20;10.90;53.90
9425;DHT22;17139;52.140;11.636;2023-04-24T03:13:47;11.50;54.90
9425;DHT22;17139;52.140;11.636;2023-04-24T03:16:14;11.30;53.50
9425;DHT22;17139;52.140;11.636;2023-04-24T03:18:41;11.10;53.60
9425;DHT22;17139;52.140;11.636;2023-04-24T03:21:08;11.00;53.70
9425;DHT22;17139;52.140;11.636;2023-04-24T03:23:36;11.00;53.80
9425;DHT22;17139;52.140;11.636;2023-04-24T03:26:03;11.00;53.90
9425;DHT22;17139;52.140;11.636;2023-04-24T03:28:31;10.90;53.90
9425;DHT22;17139;52.140;11.636;2023-04-24T03:30:58;10.90;54.00
9425;DHT22;17139;52.140;11.636;2023-04-24T03:33:25;10.80;53.90
9425;DHT22;17139;52.140;11.636;2023-04-24T03:35:52;10.80;54.00
9425;DHT22;17139;52.140;11.636;2023-04-24T03:38:19;10.90;54.50
9425;DHT22;17139;52.140;11.636;2023-04-24T03:40:47;11.10;54.70
9425;DHT22;17139;52.140;11.636;2023-04-24T03:43:14;11.00;53.80
9425;DHT22;17139;52.140;11.636;2023-04-24T03:45:41;10.80;53.90
9425;DHT22;17139;52.140;11.636;2023-04-24T03:48:08;10.60;54.00
9425;DHT22;17139;52.140;11.636;2023-04-24T03:50:35;10.50;54.20
9425;DHT22;17139;52.140;11.636;2023-04-24T03:53:02;10.40;54.20
9425;DHT22;17139;52.140;11.636;2023-04-24T03:55:29;10.30;54.30
9425;DHT22;17139;52.140;11.636;2023-04-24T03:57:58;10.30;55.10
9425;DHT22;17139;52.140;11.636;2023-04-24T04:00:25;10.20;54.50
9425;DHT22;17139;52.140;11.636;2023-04-24T04:02:53;10.20;54.70
9425;DHT22;17139;52.140;11.636;2023-04-24T04:05:20;11.00;55.60
9425;DHT22;17139;52.140;11.636;2023-04-24T04:07:47;10.80;54.10
9425;DHT22;17139;52.140;11.636;2023-04-24T04:10:14;10.60;54.10
9425;DHT22;17139;52.140;11.636;2023-04-24T04:12:42;10.40;54.30
9425;DHT22;17139;52.140;11.636;2023-04-24T04:15:11;10.30;54.40
9425;DHT22;17139;52.140;11.636;2023-04-24T04:17:38;10.20;54.50
9425;DHT22;17139;52.140;11.636;2023-04-24T04:20:06;10.20;54.60
9425;DHT22;17139;52.140;11.636;2023-04-24T04:22:35;10.10;54.60
9425;DHT22;17139;52.140;11.636;2023-04-24T04:25:02;10.10;54.60
9425;DHT22;17139;52.140;11.636;2023-04-24T04:27:30;10.00;54.50
9425;DHT22;17139;52.140;11.636;2023-04-24T04:29:57;10.00;54.50
9425;DHT22;17139;52.140;11.636;2023-04-24T04:32:26;10.70;55.40
9425;DHT22;17139;52.140;11.636;2023-04-24T04:34:53;10.70;54.50
9425;DHT22;17139;52.140;11.636;2023-04-24T04:37:20;10.50;54.20
9425;DHT22;17139;52.140;11.636;2023-04-24T04:39:47;10.40;54.20
9425;DHT22;17139;52.140;11.636;2023-04-24T04:42:14;10.40;54.30
9425;DHT22;17139;52.140;11.636;2023-04-24T04:44:41;10.40;54.30
9425;DHT22;17139;52.140;11.636;2023-04-24T04:47:10;10.40;54.30
9425;DHT22;17139;52.140;11.636;2023-04-24T04:49:39;10.50;54.30
9425;DHT22;17139;52.140;11.636;2023-04-24T04:52:06;10.50;54.20
9425;DHT22;17139;52.140;11.636;2023-04-24T04:54:33;10.60;54.10
9425;DHT22;17139;52.140;11.636;2023-04-24T04:57:00;11.30;54.80
9425;DHT22;17139;52.140;11.636;2023-04-24T04:59:27;11.30;53.80
9425;DHT22;17139;52.140;11.636;2023-04-24T05:01:54;11.20;53.80
9425;DHT22;17139;52.140;11.636;2023-04-24T05:04:21;11.30;53.80
9425;DHT22;17139;52.140;11.636;2023-04-24T05:06:50;11.30;53.70
9425;DHT22;17139;52.140;11.636;2023-04-24T05:09:17;11.40;53.80
9425;DHT22;17139;52.140;11.636;2023-04-24T05:11:44;11.50;53.80
9425;DHT22;17139;52.140;11.636;2023-04-24T05:14:11;11.60;53.80
9425;DHT22;17139;52.140;11.636;2023-04-24T05:16:43;11.70;53.60
9425;DHT22;17139;52.140;11.636;2023-04-24T05:19:10;11.90;53.50
9425;DHT22;17139;52.140;11.636;2023-04-24T05:21:39;12.00;53.40
9425;DHT22;17139;52.140;11.636;2023-04-24T05:24:07;12.20;53.50
9425;DHT22;17139;52.140;11.636;2023-04-24T05:26:34;12.40;53.60
9425;DHT22;17139;52.140;11.636;2023-04-24T05:29:02;13.30;53.00
9425;DHT22;17139;52.140;11.636;2023-04-24T05:31:29;14.10;52.00
9425;DHT22;17139;52.140;11.636;2023-04-24T05:33:56;13.80;51.90
9425;DHT22;17139;52.140;11.636;2023-04-24T05:36:23;13.60;52.20
9425;DHT22;17139;52.140;11.636;2023-04-24T05:38:50;13.40;52.50
9425;DHT22;17139;52.140;11.636;2023-04-24T05:41:19;13.30;52.60
9425;DHT22;17139;52.140;11.636;2023-04-24T05:43:46;13.20;52.70
9425;DHT22;17139;52.140;11.636;2023-04-24T05:46:13;13.10;52.80
9425;DHT22;17139;52.140;11.636;2023-04-24T05:48:40;13.10;52.90
9425;DHT22;17139;52.140;11.636;2023-04-24T05:51:08;13.00;52.90
9425;DHT22;17139;52.140;11.636;2023-04-24T05:53:35;13.00;53.00
9425;DHT22;17139;52.140;11.636;2023-04-24T05:56:02;12.90;52.90
9425;DHT22;17139;52.140;11.636;2023-04-24T05:58:31;13.50;52.80
9425;DHT22;17139;52.140;11.636;2023-04-24T06:00:58;13.30;52.40
9425;DHT22;17139;52.140;11.636;2023-04-24T06:03:27;13.20;52.70
9425;DHT22;17139;52.140;11.636;2023-04-24T06:05:54;13.10;52.90
9425;DHT22;17139;52.140;11.636;2023-04-24T06:08:22;13.20;52.90
9425;DHT22;17139;52.140;11.636;2023-04-24T06:10:49;13.20;52.90
9425;DHT22;17139;52.140;11.636;2023-04-24T06:13:16;13.30;53.10
9425;DHT22;17139;52.140;11.636;2023-04-24T06:15:45;13.30;53.10
9425;DHT22;17139;52.140;11.636;2023-04-24T06:18:12;13.40;53.10
9425;DHT22;17139;52.140;11.636;2023-04-24T06:20:39;13.50;53.00
9425;DHT22;17139;52.140;11.636;2023-04-24T06:23:06;13.60;52.90
9425;DHT22;17139;52.140;11.636;2023-04-24T06:25:33;13.90;52.90
9425;DHT22;17139;52.140;11.636;2023-04-24T06:28:00;13.80;52.50
9425;DHT22;17139;52.140;11.636;2023-04-24T06:30:28;13.70;52.60
9425;DHT22;17139;52.140;11.636;2023-04-24T06:32:56;13.60;52.80
9425;DHT22;17139;52.140;11.636;2023-04-24T06:35:23;13.60;52.90
9425;DHT22;17139;52.140;11.636;2023-04-24T06:37:51;13.50;52.80
9425;DHT22;17139;52.140;11.636;2023-04-24T06:40:18;13.60;52.90
9425;DHT22;17139;52.140;11.636;2023-04-24T06:42:45;13.50;52.80
9425;DHT22;17139;52.140;11.636;2023-04-24T06:45:12;13.50;52.70
9425;DHT22;17139;52.140;11.636;2023-04-24T06:47:39;14.10;52.60
9425;DHT22;17139;52.140;11.636;2023-04-24T06:50:08;14.10;52.40
9425;DHT22;17139;52.140;11.636;2023-04-24T06:52:35;14.40;52.50
9425;DHT22;17139;52.140;11.636;2023-04-24T06:55:03;14.40;52.10
9425;DHT22;17139;52.140;11.636;2023-04-24T06:57:31;14.50;52.10
9425;DHT22;17139;52.140;11.636;2023-04-24T06:59:58;14.60;52.10
9425;DHT22;17139;52.140;11.636;2023-04-24T07:02:25;14.60;52.10
9425;DHT22;17139;52.140;11.636;2023-04-24T07:04:52;14.70;52.20
9425;DHT22;17139;52.140;11.636;2023-04-24T07:07:21;14.80;52.20
9425;DHT22;17139;52.140;11.636;2023-04-24T07:09:49;14.80;52.10
9425;DHT22;17139;52.140;11.636;2023-04-24T07:12:16;14.80;52.10
9425;DHT22;17139;52.140;11.636;2023-04-24T07:14:46;14.70;52.10
9425;DHT22;17139;52.140;11.636;2023-04-24T07:17:13;14.60;52.20
9425;DHT22;17139;52.140;11.636;2023-04-24T07:19:40;14.80;52.30
9425;DHT22;17139;52.140;11.636;2023-04-24T07:22:07;14.90;53.00
9425;DHT22;17139;52.140;11.636;2023-04-24T07:24:36;15.00;52.20
9425;DHT22;17139;52.140;11.636;2023-04-24T07:27:03;15.10;52.10
9425;DHT22;17139;52.140;11.636;2023-04-24T07:29:31;15.10;52.00
9425;DHT22;17139;52.140;11.636;2023-04-24T07:31:58;15.20;52.00
9425;DHT22;17139;52.140;11.636;2023-04-24T07:34:25;15.20;51.90
9425;DHT22;17139;52.140;11.636;2023-04-24T07:36:52;15.20;52.10
9425;DHT22;17139;52.140;11.636;2023-04-24T07:39:19;15.20;52.00
9425;DHT22;17139;52.140;11.636;2023-04-24T07:41:47;15.20;51.90
9425;DHT22;17139;52.140;11.636;2023-04-24T07:44:14;15.20;52.10
9425;DHT22;17139;52.140;11.636;2023-04-24T07:46:41;15.10;52.00
9425;DHT22;17139;52.140;11.636;2023-04-24T07:49:09;15.40;51.70
9425;DHT22;17139;52.140;11.636;2023-04-24T07:51:36;15.30;51.60
9425;DHT22;17139;52.140;11.636;2023-04-24T07:54:04;15.20;51.80
9425;DHT22;17139;52.140;11.636;2023-04-24T07:56:32;15.10;51.90
9425;DHT22;17139;52.140;11.636;2023-04-24T07:59:00;15.10;52.10
9425;DHT22;17139;52.140;11.636;2023-04-24T08:01:27;15.10;52.10
9425;DHT22;17139;52.140;11.636;2023-04-24T08:03:54;15.10;52.20
9425;DHT22;17139;52.140;11.636;2023-04-24T08:06:22;15.10;52.20
9425;DHT22;17139;52.140;11.636;2023-04-24T08:08:49;15.10;52.10
9425;DHT22;17139;52.140;11.636;2023-04-24T08:11:17;15.20;52.30
9425;DHT22;17139;52.140;11.636;2023-04-24T08:13:44;15.40;52.10
9425;DHT22;17139;52.140;11.636;2023-04-24T08:16:12;15.50;51.80
9425;DHT22;17139;52.140;11.636;2023-04-24T08:18:39;15.50;51.80
9425;DHT22;17139;52.140;11.636;2023-04-24T08:21:06;15.40;51.80
9425;DHT22;17139;52.140;11.636;2023-04-24T08:23:33;15.40;51.90
9425;DHT22;17139;52.140;11.636;2023-04-24T08:26:00;15.20;51.90
9425;DHT22;17139;52.140;11.636;2023-04-24T08:28:28;15.10;52.10
9425;DHT22;17139;52.140;11.636;2023-04-24T08:30:56;15.10;52.20
9425;DHT22;17139;52.140;11.636;2023-04-24T08:33:24;15.10;52.40
9425;DHT22;17139;52.140;11.636;2023-04-24T08:35:52;15.10;52.40
9425;DHT22;17139;52.140;11.636;2023-04-24T08:38:19;15.30;51.60
9425;DHT22;17139;52.140;11.636;2023-04-24T08:40:47;15.30;51.60
9425;DHT22;17139;52.140;11.636;2023-04-24T08:43:15;15.40;51.80
9425;DHT22;17139;52.140;11.636;2023-04-24T08:45:43;15.30;51.90
9425;DHT22;17139;52.140;11.636;2023-04-24T08:48:10;15.40;52.10
9425;DHT22;17139;52.140;11.636;2023-04-24T08:50:39;15.60;52.20
9425;DHT22;17139;52.140;11.636;2023-04-24T08:53:08;15.80;52.10
9425;DHT22;17139;52.140;11.636;2023-04-24T08:55:35;16.00;52.00
9425;DHT22;17139;52.140;11.636;2023-04-24T08:58:04;16.10;51.70
9425;DHT22;17139;52.140;11.636;2023-04-24T09:00:31;16.10;51.60
9425;DHT22;17139;52.140;11.636;2023-04-24T09:03:00;16.20;51.50
9425;DHT22;17139;52.140;11.636;2023-04-24T09:05:29;16.20;51.60
9425;DHT22;17139;52.140;11.636;2023-04-24T09:07:59;16.20;51.60
9425;DHT22;17139;52.140;11.636;2023-04-24T09:10:28;16.30;51.40
9425;DHT22;17139;52.140;11.636;2023-04-24T09:12:56;17.10;48.70
9425;DHT22;17139;52.140;11.636;2023-04-24T09:15:27;17.00;50.00
9425;DHT22;17139;52.140;11.636;2023-04-24T09:17:54;16.90;50.30
9425;DHT22;17139;52.140;11.636;2023-04-24T09:20:22;16.80;50.60
9425;DHT22;17139;52.140;11.636;2023-04-24T09:22:53;16.80;50.90
9425;DHT22;17139;52.140;11.636;2023-04-24T09:25:23;16.80;50.80
9425;DHT22;17139;52.140;11.636;2023-04-24T09:27:53;16.70;50.80
9425;DHT22;17139;52.140;11.636;2023-04-24T09:30:21;16.70;50.90
9425;DHT22;17139;52.140;11.636;2023-04-24T09:32:49;16.70;50.90
9425;DHT22;17139;52.140;11.636;2023-04-24T09:35:16;17.40;47.60
9425;DHT22;17139;52.140;11.636;2023-04-24T09:37:45;17.80;46.30
9425;DHT22;17139;52.140;11.636;2023-04-24T09:40:14;17.30;48.00
9425;DHT22;17139;52.140;11.636;2023-04-24T09:42:45;17.40;46.10
9425;DHT22;17139;52.140;11.636;2023-04-24T09:45:13;16.70;47.90
9425;DHT22;17139;52.140;11.636;2023-04-24T09:47:41;16.10;48.80
9425;DHT22;17139;52.140;11.636;2023-04-24T09:50:15;15.70;49.30
9425;DHT22;17139;52.140;11.636;2023-04-24T09:52:44;15.40;50.00
9425;DHT22;17139;52.140;11.636;2023-04-24T09:55:13;15.10;50.50
9425;DHT22;17139;52.140;11.636;2023-04-24T09:57:51;14.90;50.50
9425;DHT22;17139;52.140;11.636;2023-04-24T10:00:23;14.80;50.60
9425;DHT22;17139;52.140;11.636;2023-04-24T10:02:54;14.60;50.70
9425;DHT22;17139;52.140;11.636;2023-04-24T10:05:28;14.40;50.90
9425;DHT22;17139;52.140;11.636;2023-04-24T10:08:02;15.40;48.80
9425;DHT22;17139;52.140;11.636;2023-04-24T10:10:29;15.20;49.60
9425;DHT22;17139;52.140;11.636;2023-04-24T10:12:59;14.90;50.00
9425;DHT22;17139;52.140;11.636;2023-04-24T10:15:26;14.90;50.30
9425;DHT22;17139;52.140;11.636;2023-04-24T10:17:53;14.90;50.50
9425;DHT22;17139;52.140;11.636;2023-04-24T10:20:22;14.90;51.20
9425;DHT22;17139;52.140;11.636;2023-04-24T10:22:50;15.00;50.70
9425;DHT22;17139;52.140;11.636;2023-04-24T10:25:19;15.10;50.80
9425;DHT22;17139;52.140;11.636;2023-04-24T10:27:47;15.30;50.90
9425;DHT22;17139;52.140;11.636;2023-04-24T10:30:16;15.50;50.50
9425;DHT22;17139;52.140;11.636;2023-04-24T10:32:44;16.40;49.50
9425;DHT22;17139;52.140;11.636;2023-04-24T10:35:13;16.40;49.30
9425;DHT22;17139;52.140;11.636;2023-04-24T10:37:43;16.50;49.40
9425;DHT22;17139;52.140;11.636;2023-04-24T10:40:12;16.50;49.60
9425;DHT22;17139;52.140;11.636;2023-04-24T10:42:47;16.50;49.50
9425;DHT22;17139;52.140;11.636;2023-04-24T10:45:20;16.40;49.30
9425;DHT22;17139;52.140;11.636;2023-04-24T10:47:56;16.30;49.50
9425;DHT22;17139;52.140;11.636;2023-04-24T10:50:25;16.30;49.70
9425;DHT22;17139;52.140;11.636;2023-04-24T10:52:53;16.30;49.80
9425;DHT22;17139;52.140;11.636;2023-04-24T10:55:45;16.30;49.40
9425;DHT22;17139;52.140;11.636;2023-04-24T10:58:13;16.40;49.40
9425;DHT22;17139;52.140;11.636;2023-04-24T11:00:42;16.40;49.50
9425;DHT22;17139;52.140;11.636;2023-04-24T11:03:23;16.80;47.30
9425;DHT22;17139;52.140;11.636;2023-04-24T11:05:53;17.20;45.20
9425;DHT22;17139;52.140;11.636;2023-04-24T11:08:27;16.80;46.90
9425;DHT22;17139;52.140;11.636;2023-04-24T11:10:57;16.70;47.60
9425;DHT22;17139;52.140;11.636;2023-04-24T11:13:26;16.70;47.80
9425;DHT22;17139;52.140;11.636;2023-04-24T11:16:13;16.70;47.90
9425;DHT22;17139;52.140;11.636;2023-04-24T11:18:42;16.80;47.70
9425;DHT22;17139;52.140;11.636;2023-04-24T11:21:11;16.80;48.10
9425;DHT22;17139;52.140;11.636;2023-04-24T11:23:39;16.80;48.00
9425;DHT22;17139;52.140;11.636;2023-04-24T11:26:14;16.80;47.90
9425;DHT22;17139;52.140;11.636;2023-04-24T11:28:47;17.30;44.20
9425;DHT22;17139;52.140;11.636;2023-04-24T11:31:38;17.00;46.20
9425;DHT22;17139;52.140;11.636;2023-04-24T11:34:09;17.30;44.50
9425;DHT22;17139;52.140;11.636;2023-04-24T11:36:38;17.00;46.00
9425;DHT22;17139;52.140;11.636;2023-04-24T11:39:05;17.00;47.40
9425;DHT22;17139;52.140;11.636;2023-04-24T11:41:34;16.90;46.90
9425;DHT22;17139;52.140;11.636;2023-04-24T11:44:02;16.80;47.00
9425;DHT22;17139;52.140;11.636;2023-04-24T11:46:30;16.60;47.00
9425;DHT22;17139;52.140;11.636;2023-04-24T11:48:59;16.50;47.20
9425;DHT22;17139;52.140;11.636;2023-04-24T11:51:27;16.30;47.20
9425;DHT22;17139;52.140;11.636;2023-04-24T11:53:55;16.30;47.30
9425;DHT22;17139;52.140;11.636;2023-04-24T11:56:23;16.20;47.50
9425;DHT22;17139;52.140;11.636;2023-04-24T11:58:52;16.30;46.00
9425;DHT22;17139;52.140;11.636;2023-04-24T12:01:20;16.20;46.80
9425;DHT22;17139;52.140;11.636;2023-04-24T12:03:48;16.20;47.40
9425;DHT22;17139;52.140;11.636;2023-04-24T12:06:18;16.10;47.50
9425;DHT22;17139;52.140;11.636;2023-04-24T12:08:47;16.10;47.70
9425;DHT22;17139;52.140;11.636;2023-04-24T12:11:16;16.20;47.80
9425;DHT22;17139;52.140;11.636;2023-04-24T12:13:44;16.10;47.80
9425;DHT22;17139;52.140;11.636;2023-04-24T12:16:11;16.00;47.70
9425;DHT22;17139;52.140;11.636;2023-04-24T12:18:43;15.90;47.60
9425;DHT22;17139;52.140;11.636;2023-04-24T12:21:19;15.80;47.50
9425;DHT22;17139;52.140;11.636;2023-04-24T12:23:47;16.30;45.50
9425;DHT22;17139;52.140;11.636;2023-04-24T12:26:17;16.20;46.60
9425;DHT22;17139;52.140;11.636;2023-04-24T12:28:48;16.10;46.90
9425;DHT22;17139;52.140;11.636;2023-04-24T12:31:16;16.90;43.50
9425;DHT22;17139;52.140;11.636;2023-04-24T12:33:43;16.60;45.10
9425;DHT22;17139;52.140;11.636;2023-04-24T12:36:11;16.50;45.80
9425;DHT22;17139;52.140;11.636;2023-04-24T12:38:43;16.50;46.30
9425;DHT22;17139;52.140;11.636;2023-04-24T12:41:13;16.60;46.60
9425;DHT22;17139;52.140;11.636;2023-04-24T12:43:51;16.70;46.60
9425;DHT22;17139;52.140;11.636;2023-04-24T12:46:19;16.90;46.40
9425;DHT22;17139;52.140;11.636;2023-04-24T12:48:46;17.00;46.40
9425;DHT22;17139;52.140;11.636;2023-04-24T12:51:13;17.00;46.30
9425;DHT22;17139;52.140;11.636;2023-04-24T12:53:41;16.90;46.20
9425;DHT22;17139;52.140;11.636;2023-04-24T12:56:08;17.20;43.70
9425;DHT22;17139;52.140;11.636;2023-04-24T12:58:35;17.40;42.00
9425;DHT22;17139;52.140;11.636;2023-04-24T13:01:02;17.00;44.30
9425;DHT22;17139;52.140;11.636;2023-04-24T13:03:29;16.90;45.10
9425;DHT22;17139;52.140;11.636;2023-04-24T13:05:56;16.70;45.30
9425;DHT22;17139;52.140;11.636;2023-04-24T13:08:23;16.60;45.60
9425;DHT22;17139;52.140;11.636;2023-04-24T13:10:52;16.50;45.80
9425;DHT22;17139;52.140;11.636;2023-04-24T13:13:19;16.50;46.00
9425;DHT22;17139;52.140;11.636;2023-04-24T13:15:46;16.50;46.00
9425;DHT22;17139;52.140;11.636;2023-04-24T13:18:13;16.50;46.00
9425;DHT22;17139;52.140;11.636;2023-04-24T13:20:40;16.40;46.20
9425;DHT22;17139;52.140;11.636;2023-04-24T13:23:08;16.90;43.80
9425;DHT22;17139;52.140;11.636;2023-04-24T13:25:36;16.90;45.20
9425;DHT22;17139;52.140;11.636;2023-04-24T13:28:06;16.80;45.60
9425;DHT22;17139;52.140;11.636;2023-04-24T13:30:33;16.80;45.70
9425;DHT22;17139;52.140;11.636;2023-04-24T13:33:00;16.70;45.80
9425;DHT22;17139;52.140;11.636;2023-04-24T13:35:27;16.60;45.80
9425;DHT22;17139;52.140;11.636;2023-04-24T13:37:54;16.50;45.80
9425;DHT22;17139;52.140;11.636;2023-04-24T13:40:21;16.50;46.10
9425;DHT22;17139;52.140;11.636;2023-04-24T13:42:48;16.40;46.20
9425;DHT22;17139;52.140;11.636;2023-04-24T13:45:17;17.10;42.50
9425;DHT22;17139;52.140;11.636;2023-04-24T13:47:44;16.70;44.20
9425;DHT22;17139;52.140;11.636;2023-04-24T13:50:11;16.40;45.00
9425;DHT22;17139;52.140;11.636;2023-04-24T13:52:38;16.50;44.40
9425;DHT22;17139;52.140;11.636;2023-04-24T13:55:06;16.30;45.20
9425;DHT22;17139;52.140;11.636;2023-04-24T13:57:34;16.10;45.60
9425;DHT22;17139;52.140;11.636;2023-04-24T14:00:01;15.80;45.90
9425;DHT22;17139;52.140;11.636;2023-04-24T14:02:31;15.70;46.20
9425;DHT22;17139;52.140;11.636;2023-04-24T14:04:58;15.40;46.50
9425;DHT22;17139;52.140;11.636;2023-04-24T14:07:25;15.20;46.90
9425;DHT22;17139;52.140;11.636;2023-04-24T14:09:52;15.00;46.80
9425;DHT22;17139;52.140;11.636;2023-04-24T14:12:19;14.80;47.00
9425;DHT22;17139;52.140;11.636;2023-04-24T14:14:46;14.70;47.30
9425;DHT22;17139;52.140;11.636;2023-04-24T14:17:14;14.50;47.40
9425;DHT22;17139;52.140;11.636;2023-04-24T14:19:42;14.60;47.10
9425;DHT22;17139;52.140;11.636;2023-04-24T14:22:10;15.10;46.60
9425;DHT22;17139;52.140;11.636;2023-04-24T14:24:37;15.10;46.90
9425;DHT22;17139;52.140;11.636;2023-04-24T14:27:04;15.10;46.90
9425;DHT22;17139;52.140;11.636;2023-04-24T14:29:31;15.10;46.90
9425;DHT22;17139;52.140;11.636;2023-04-24T14:31:58;15.20;47.00
9425;DHT22;17139;52.140;11.636;2023-04-24T14:34:25;15.20;47.00
9425;DHT22;17139;52.140;11.636;2023-04-24T14:36:54;15.00;46.80
9425;DHT22;17139;52.140;11.636;2023-04-24T14:39:21;15.00;46.90
9425;DHT22;17139;52.140;11.636;2023-04-24T14:41:48;14.90;47.20
9425;DHT22;17139;52.140;11.636;2023-04-24T14:44:15;14.80;47.20
9425;DHT22;17139;52.140;11.636;2023-04-24T14:46:42;14.70;47.00
9425;DHT22;17139;52.140;11.636;2023-04-24T14:49:09;14.60;47.00
9425;DHT22;17139;52.140;11.636;2023-04-24T14:51:38;14.90;46.10
9425;DHT22;17139;52.140;11.636;2023-04-24T14:54:06;14.70;46.00
9425;DHT22;17139;52.140;11.636;2023-04-24T14:56:33;14.40;46.30
9425;DHT22;17139;52.140;11.636;2023-04-24T14:59:01;14.10;46.50
9425;DHT22;17139;52.140;11.636;2023-04-24T15:01:28;13.90;46.70
9425;DHT22;17139;52.140;11.636;2023-04-24T15:03:55;13.70;46.90
9425;DHT22;17139;52.140;11.636;2023-04-24T15:06:22;13.60;47.00
9425;DHT22;17139;52.140;11.636;2023-04-24T15:08:49;13.60;47.20
9425;DHT22;17139;52.140;11.636;2023-04-24T15:11:18;13.60;47.20
9425;DHT22;17139;52.140;11.636;2023-04-24T15:13:45;13.70;47.10
9425;DHT22;17139;52.140;11.636;2023-04-24T15:16:12;14.40;45.30
9425;DHT22;17139;52.140;11.636;2023-04-24T15:18:39;14.10;45.70
9425;DHT22;17139;52.140;11.636;2023-04-24T15:21:07;13.80;46.00
9425;DHT22;17139;52.140;11.636;2023-04-24T15:23:34;13.60;46.50
9425;DHT22;17139;52.140;11.636;2023-04-24T15:26:01;13.40;46.70
9425;DHT22;17139;52.140;11.636;2023-04-24T15:28:29;13.20;46.80
9425;DHT22;17139;52.140;11.636;2023-04-24T15:30:56;13.00;47.00
9425;DHT22;17139;52.140;11.636;2023-04-24T15:33:24;12.90;47.10
9425;DHT22;17139;52.140;11.636;2023-04-24T15:35:51;12.80;47.10